Time;durP1;ratioP1;P1;durP2;ratioP2;P2;SDS_P1;SDS_P2;PMS_P1;PMS_P2;Temp;Humidity;BMP_temperature;BMP_pressure;BME280_temperature;BME280_humidity;BME280_pressure;Samples;Min_cycle;Max_cycle;Signal;HPM_P1;HPM_P2
2022/06/27 00:02:18;;;;;;;2.17;1.40;;;23.90;61.30;;;;;;4492995;31;20080;-69
2022/06/27 00:04:44;;;;;;;2.80;1.20;;;23.90;61.30;;;;;;4492704;31;20061;-68
2022/06/27 00:07:11;;;;;;;2.30;1.23;;;23.90;61.30;;;;;;4493595;31;20053;-69
2022/06/27 00:09:38;;;;;;;2.53;1.30;;;23.90;61.30;;;;;;4496492;31;20498;-69
2022/06/27 00:12:06;;;;;;;1.20;1.10;;;23.90;61.30;;;;;;4494413;31;20629;-69
2022/06/27 00:14:32;;;;;;;1.80;1.20;;;23.90;61.20;;;;;;4491908;31;20103;-69
2022/06/27 00:16:57;;;;;;;1.92;1.27;;;23.90;61.30;;;;;;4492497;31;20494;-68
2022/06/27 00:19:23;;;;;;;2.78;1.50;;;23.80;61.30;;;;;;4492711;31;20202;-69
2022/06/27 00:21:49;;;;;;;2.20;1.10;;;23.90;61.30;;;;;;4492986;31;20199;-69
2022/06/27 00:24:15;;;;;;;2.08;1.20;;;23.90;61.30;;;;;;4492687;31;20494;-69
2022/06/27 00:26:41;;;;;;;1.85;1.20;;;23.80;61.20;;;;;;4492765;31;20061;-69
2022/06/27 00:29:07;;;;;;;1.73;1.13;;;23.80;61.30;;;;;;4492636;31;20352;-69
2022/06/27 00:31:33;;;;;;;2.50;1.33;;;23.80;61.20;;;;;;4491511;31;20402;-69
2022/06/27 00:33:58;;;;;;;2.78;1.23;;;23.80;61.20;;;;;;4492330;31;20058;-69
2022/06/27 00:36:24;;;;;;;2.22;1.15;;;23.80;61.30;;;;;;4492488;31;20403;-69
2022/06/27 00:38:50;;;;;;;1.50;1.05;;;23.80;61.20;;;;;;4492431;31;20222;-69
2022/06/27 00:41:16;;;;;;;1.85;1.38;;;23.80;61.10;;;;;;4492439;31;20525;-69
2022/06/27 00:43:44;;;;;;;2.13;1.20;;;23.80;61.20;;;;;;4491033;31;20091;-68
2022/06/27 00:46:10;;;;;;;1.77;1.00;;;23.80;61.30;;;;;;4492573;31;20633;-68
2022/06/27 00:48:36;;;;;;;1.77;1.20;;;23.80;61.30;;;;;;4492175;31;20124;-68
2022/06/27 00:51:03;;;;;;;1.45;1.25;;;23.80;61.30;;;;;;4492375;31;20406;-68
2022/06/27 00:53:29;;;;;;;1.92;1.08;;;23.80;61.20;;;;;;4492351;31;20132;-68
2022/06/27 00:55:56;;;;;;;1.27;1.00;;;23.80;61.30;;;;;;4492240;31;20128;-68
2022/06/27 00:58:22;;;;;;;1.20;1.10;;;23.80;61.20;;;;;;4492509;31;20081;-69
2022/06/27 01:00:47;;;;;;;2.90;1.23;;;23.80;61.20;;;;;;4492174;31;20095;-69
2022/06/27 01:03:13;;;;;;;1.35;1.10;;;23.80;61.20;;;;;;4492156;31;20237;-68
2022/06/27 01:05:51;;;;;;;2.15;1.10;;;23.80;61.30;;;;;;4492059;31;20087;-70
2022/06/27 01:08:21;;;;;;;1.45;0.90;;;23.80;61.30;;;;;;4492281;31;20101;-68
2022/06/27 01:10:48;;;;;;;1.42;1.30;;;23.80;61.20;;;;;;4492109;31;20156;-68
2022/06/27 01:13:14;;;;;;;3.97;1.20;;;23.80;61.30;;;;;;4492315;31;20087;-68
2022/06/27 01:15:45;;;;;;;1.42;0.90;;;23.80;61.30;;;;;;4490873;31;20065;-69
2022/06/27 01:18:12;;;;;;;2.05;1.10;;;23.80;61.20;;;;;;4492106;31;20118;-68
2022/06/27 01:20:41;;;;;;;2.15;1.10;;;23.80;61.30;;;;;;4492018;31;20085;-69
2022/06/27 01:23:07;;;;;;;1.33;0.85;;;23.80;61.30;;;;;;4491980;31;20569;-68
2022/06/27 01:25:35;;;;;;;1.75;0.90;;;23.80;61.30;;;;;;4491624;31;20080;-68
2022/06/27 01:28:03;;;;;;;1.27;0.90;;;23.70;61.20;;;;;;4491935;31;20085;-69
2022/06/27 01:30:29;;;;;;;1.27;1.00;;;23.70;61.20;;;;;;4492169;31;20065;-68
2022/06/27 01:32:55;;;;;;;2.70;1.25;;;23.80;61.30;;;;;;4491873;32;20514;-69
2022/06/27 01:35:21;;;;;;;1.10;1.00;;;23.70;61.20;;;;;;4491848;32;20089;-68
2022/06/27 01:37:46;;;;;;;1.80;0.95;;;23.70;61.20;;;;;;4491865;32;20553;-68
2022/06/27 01:40:14;;;;;;;1.05;0.90;;;23.70;61.20;;;;;;4492082;32;20068;-69
2022/06/27 01:42:41;;;;;;;1.83;1.23;;;23.70;61.20;;;;;;4491847;32;20533;-68
2022/06/27 01:45:08;;;;;;;1.48;0.90;;;23.70;61.30;;;;;;4492114;32;20499;-68
2022/06/27 01:47:34;;;;;;;1.83;1.00;;;23.70;61.20;;;;;;4491947;32;20081;-68
2022/06/27 01:49:59;;;;;;;1.65;1.15;;;23.70;61.30;;;;;;4491797;32;20403;-68
2022/06/27 01:52:27;;;;;;;1.85;0.82;;;23.70;61.20;;;;;;4491749;32;20065;-68
2022/06/27 01:54:57;;;;;;;1.20;0.85;;;23.70;61.20;;;;;;4490663;32;20446;-68
2022/06/27 01:57:23;;;;;;;1.67;1.00;;;23.70;61.20;;;;;;4491691;32;20418;-69
2022/06/27 01:59:50;;;;;;;2.60;1.17;;;23.70;61.30;;;;;;4491886;31;20073;-68
2022/06/27 02:02:17;;;;;;;1.60;1.05;;;23.70;61.20;;;;;;4494393;31;20151;-68
2022/06/27 02:04:44;;;;;;;1.80;1.08;;;23.70;61.20;;;;;;4493474;31;20162;-68
2022/06/27 02:07:11;;;;;;;1.48;1.08;;;23.70;61.20;;;;;;4494680;31;20445;-68
2022/06/27 02:09:37;;;;;;;1.00;0.70;;;23.70;61.20;;;;;;4494937;31;20121;-68
2022/06/27 02:12:18;;;;;;;1.30;1.10;;;23.70;61.20;;;;;;4494780;31;20076;-69
2022/06/27 02:14:49;;;;;;;1.70;0.90;;;23.70;61.20;;;;;;4494632;31;20091;-68
2022/06/27 02:17:16;;;;;;;1.45;0.98;;;23.70;61.30;;;;;;4494648;31;20081;-68
2022/06/27 02:19:43;;;;;;;1.02;0.88;;;23.70;61.20;;;;;;4494560;31;20080;-68
2022/06/27 02:22:11;;;;;;;1.00;0.82;;;23.70;61.20;;;;;;4494437;31;20502;-69
2022/06/27 02:24:37;;;;;;;1.20;0.90;;;23.70;61.20;;;;;;4493194;31;20561;-68
2022/06/27 02:27:04;;;;;;;1.85;1.17;;;23.60;61.20;;;;;;4494067;31;20097;-68
2022/06/27 02:29:31;;;;;;;2.35;1.40;;;23.60;61.30;;;;;;4494451;31;20641;-68
2022/06/27 02:31:59;;;;;;;0.93;0.70;;;23.60;61.20;;;;;;4494131;31;20105;-68
2022/06/27 02:34:26;;;;;;;0.75;0.75;;;23.70;61.20;;;;;;4494395;31;20530;-68
2022/06/27 02:36:54;;;;;;;1.17;0.88;;;23.60;61.20;;;;;;4494527;31;20305;-68
2022/06/27 02:39:24;;;;;;;1.00;0.70;;;23.60;61.20;;;;;;4494552;31;20511;-68
2022/06/27 02:41:55;;;;;;;0.98;0.88;;;23.60;61.20;;;;;;4494469;31;20162;-68
2022/06/27 02:44:22;;;;;;;1.20;0.88;;;23.60;61.20;;;;;;4494297;31;20418;-68
2022/06/27 02:46:50;;;;;;;1.60;0.90;;;23.60;61.20;;;;;;4494126;31;20143;-68
2022/06/27 02:49:16;;;;;;;1.90;0.95;;;23.60;61.20;;;;;;4494150;31;20117;-68
2022/06/27 02:51:54;;;;;;;1.90;0.90;;;23.60;61.20;;;;;;4494122;31;20297;-68
2022/06/27 02:54:30;;;;;;;1.15;0.98;;;23.60;61.20;;;;;;4493084;31;20161;-68
2022/06/27 02:57:07;;;;;;;1.45;0.90;;;23.60;61.20;;;;;;4494425;31;20415;-68
2022/06/27 02:59:37;;;;;;;1.50;1.00;;;23.60;61.20;;;;;;4494117;31;20085;-68
2022/06/27 03:02:06;;;;;;;0.70;0.70;;;23.60;61.20;;;;;;4493981;31;20089;-69
2022/06/27 03:04:32;;;;;;;1.27;0.95;;;23.60;61.30;;;;;;4493925;31;20076;-68
2022/06/27 03:06:58;;;;;;;1.15;0.90;;;23.60;61.20;;;;;;4493548;31;20084;-68
2022/06/27 03:09:24;;;;;;;1.10;0.70;;;23.60;61.20;;;;;;4493865;31;20563;-68
2022/06/27 03:11:50;;;;;;;1.15;0.90;;;23.60;61.20;;;;;;4493835;31;20088;-68
2022/06/27 03:14:16;;;;;;;1.27;0.75;;;23.60;61.20;;;;;;4492491;31;20065;-68
2022/06/27 03:16:43;;;;;;;2.15;0.80;;;23.60;61.30;;;;;;4493811;31;20093;-68
2022/06/27 03:19:09;;;;;;;1.50;0.90;;;23.60;61.20;;;;;;4493691;31;20081;-68
2022/06/27 03:21:35;;;;;;;1.02;0.90;;;23.60;61.30;;;;;;4493666;31;20057;-68
2022/06/27 03:24:01;;;;;;;0.93;0.70;;;23.50;61.20;;;;;;4493644;31;20069;-68
2022/06/27 03:26:27;;;;;;;1.00;0.70;;;23.60;61.30;;;;;;4493505;31;20566;-68
2022/06/27 03:28:53;;;;;;;0.75;0.75;;;23.60;61.30;;;;;;4493614;31;20211;-68
2022/06/27 03:31:19;;;;;;;1.45;0.80;;;23.50;61.20;;;;;;4492467;31;20088;-68
2022/06/27 03:33:44;;;;;;;1.42;0.80;;;23.50;61.20;;;;;;4493528;31;20461;-68
2022/06/27 03:36:11;;;;;;;0.70;0.70;;;23.50;61.20;;;;;;4493218;31;20053;-69
2022/06/27 03:38:37;;;;;;;2.35;0.82;;;23.50;61.30;;;;;;4493361;31;20131;-68
2022/06/27 03:41:03;;;;;;;0.68;0.55;;;23.60;61.30;;;;;;4493617;31;20084;-68
2022/06/27 03:43:29;;;;;;;1.10;0.80;;;23.50;61.20;;;;;;4493290;31;20089;-68
2022/06/27 03:45:56;;;;;;;0.93;0.70;;;23.60;61.30;;;;;;4492939;31;20633;-68
2022/06/27 03:51:07;;;;;;;1.67;0.90;;;23.50;61.20;;;;;;4493232;31;20120;-68
2022/06/27 03:53:33;;;;;;;1.20;0.80;;;23.50;61.20;;;;;;4493178;31;20510;-68
2022/06/27 03:55:59;;;;;;;1.35;0.82;;;23.50;61.30;;;;;;4492854;31;20061;-68
2022/06/27 03:58:24;;;;;;;1.00;0.70;;;23.50;61.30;;;;;;4493090;31;20201;-68
2022/06/27 04:00:50;;;;;;;1.00;0.90;;;23.50;61.20;;;;;;4493266;31;20069;-68
2022/06/27 04:03:16;;;;;;;0.77;0.75;;;23.50;61.30;;;;;;4493057;31;20080;-68
2022/06/27 04:05:42;;;;;;;0.80;0.80;;;23.50;61.30;;;;;;4492927;31;20065;-68
2022/06/27 04:08:08;;;;;;;1.00;0.75;;;23.50;61.30;;;;;;4492915;31;20072;-69
2022/06/27 04:10:34;;;;;;;1.15;0.63;;;23.50;61.30;;;;;;4492937;31;20154;-68
2022/06/27 04:13:00;;;;;;;0.88;0.77;;;23.50;61.30;;;;;;4491551;31;20510;-68
2022/06/27 04:15:26;;;;;;;0.80;0.68;;;23.50;61.30;;;;;;4491738;31;20072;-68
2022/06/27 04:17:53;;;;;;;2.17;0.73;;;23.50;61.30;;;;;;4492786;31;20099;-68
2022/06/27 04:20:19;;;;;;;1.05;0.70;;;23.50;61.30;;;;;;4492504;31;20073;-68
2022/06/27 04:22:45;;;;;;;1.30;0.90;;;23.40;61.20;;;;;;4492689;31;20533;-68
2022/06/27 04:25:11;;;;;;;0.82;0.77;;;23.40;61.30;;;;;;4492067;31;20069;-68
2022/06/27 04:27:37;;;;;;;0.57;0.57;;;23.40;61.30;;;;;;4492642;31;20113;-68
2022/06/27 04:30:04;;;;;;;0.70;0.50;;;23.50;61.30;;;;;;4492854;31;20480;-68
2022/06/27 04:32:29;;;;;;;1.30;0.70;;;23.50;61.30;;;;;;4492324;31;20069;-68
2022/06/27 04:34:55;;;;;;;0.60;0.60;;;23.40;61.30;;;;;;4492783;31;20077;-68
2022/06/27 04:37:22;;;;;;;1.25;0.90;;;23.50;61.30;;;;;;4491197;31;20155;-68
2022/06/27 04:39:48;;;;;;;1.05;0.70;;;23.40;61.30;;;;;;4492466;31;20503;-68
2022/06/27 04:42:15;;;;;;;1.02;0.55;;;23.40;61.20;;;;;;4492442;31;20122;-68
2022/06/27 04:44:42;;;;;;;0.90;0.77;;;23.40;61.30;;;;;;4492233;31;20161;-68
2022/06/27 04:47:08;;;;;;;0.73;0.70;;;23.40;61.30;;;;;;4492634;31;20089;-68
2022/06/27 04:49:38;;;;;;;0.77;0.63;;;23.40;61.30;;;;;;4492388;31;20138;-68
2022/06/27 04:52:08;;;;;;;0.80;0.63;;;23.40;61.30;;;;;;4492102;31;20073;-69
2022/06/27 04:54:36;;;;;;;1.00;0.80;;;23.50;61.30;;;;;;4492423;31;20081;-68
2022/06/27 04:57:03;;;;;;;1.17;0.93;;;23.40;61.30;;;;;;4492056;31;20072;-68
2022/06/27 04:59:29;;;;;;;0.93;0.60;;;23.40;61.30;;;;;;4492222;31;20084;-68
2022/06/27 05:01:55;;;;;;;1.20;0.70;;;23.40;61.30;;;;;;4491937;31;20077;-68
2022/06/27 05:04:21;;;;;;;1.00;0.77;;;23.40;61.30;;;;;;4491907;31;20093;-68
2022/06/27 05:06:48;;;;;;;0.80;0.57;;;23.40;61.30;;;;;;4491802;31;20242;-68
2022/06/27 05:09:15;;;;;;;0.95;0.60;;;23.40;61.30;;;;;;4491075;31;20162;-68
2022/06/27 05:11:42;;;;;;;0.77;0.57;;;23.40;61.30;;;;;;4490804;31;20085;-68
2022/06/27 05:14:08;;;;;;;0.68;0.60;;;23.40;61.30;;;;;;4491985;31;20148;-68
2022/06/27 05:16:34;;;;;;;1.38;0.77;;;23.40;61.30;;;;;;4492125;31;20418;-68
2022/06/27 05:19:01;;;;;;;0.70;0.65;;;23.40;61.30;;;;;;4492012;31;20081;-72
2022/06/27 05:21:27;;;;;;;0.52;0.50;;;23.40;61.30;;;;;;4492286;31;20089;-68
2022/06/27 05:23:53;;;;;;;0.95;0.65;;;23.40;61.30;;;;;;4491791;31;20281;-68
2022/06/27 05:26:19;;;;;;;0.65;0.63;;;23.40;61.30;;;;;;4490810;31;20177;-69
2022/06/27 05:28:45;;;;;;;0.80;0.50;;;23.40;61.30;;;;;;4492230;31;20457;-68
2022/06/27 05:31:11;;;;;;;0.73;0.50;;;23.40;61.30;;;;;;4491931;31;20170;-69
2022/06/27 05:33:37;;;;;;;0.75;0.70;;;23.40;61.40;;;;;;4491632;32;20105;-68
2022/06/27 05:36:04;;;;;;;2.38;0.80;;;23.40;61.40;;;;;;4493392;31;20166;-68
2022/06/27 05:38:31;;;;;;;0.85;0.65;;;23.40;61.40;;;;;;4494926;31;20293;-68
2022/06/27 05:40:59;;;;;;;1.27;0.60;;;23.40;61.40;;;;;;4494958;31;20128;-68
2022/06/27 05:43:25;;;;;;;0.68;0.60;;;23.40;61.40;;;;;;4494901;31;20545;-68
2022/06/27 05:45:52;;;;;;;0.75;0.70;;;23.40;61.40;;;;;;4494753;31;20529;-68
2022/06/27 05:48:22;;;;;;;0.85;0.60;;;23.40;61.30;;;;;;4495598;31;20084;-68
2022/06/27 05:50:48;;;;;;;1.00;0.70;;;23.30;61.30;;;;;;4494972;31;20104;-68
2022/06/27 05:53:14;;;;;;;0.90;0.70;;;23.40;61.40;;;;;;4494695;31;20581;-68
2022/06/27 05:55:46;;;;;;;0.93;0.60;;;23.40;61.40;;;;;;4494680;31;20076;-68
2022/06/27 05:58:13;;;;;;;0.68;0.60;;;23.30;61.30;;;;;;4494583;31;20070;-69
2022/06/27 06:00:39;;;;;;;0.68;0.60;;;23.30;61.30;;;;;;4494952;31;20069;-68
2022/06/27 06:03:06;;;;;;;0.85;0.60;;;23.40;61.40;;;;;;4494759;31;20096;-69
2022/06/27 06:05:31;;;;;;;0.68;0.60;;;23.30;61.30;;;;;;4494678;31;20636;-68
2022/06/27 06:08:04;;;;;;;1.25;0.80;;;23.30;61.30;;;;;;4494296;31;20105;-68
2022/06/27 06:10:33;;;;;;;0.70;0.60;;;23.30;61.30;;;;;;4493542;31;20222;-69
2022/06/27 06:13:01;;;;;;;1.25;0.82;;;23.30;61.30;;;;;;4494503;31;20438;-68
2022/06/27 06:15:31;;;;;;;0.63;0.60;;;23.30;61.30;;;;;;4495175;31;20077;-70
2022/06/27 06:18:01;;;;;;;0.82;0.50;;;23.30;61.40;;;;;;4494988;31;20121;-68
2022/06/27 06:20:28;;;;;;;0.50;0.50;;;23.40;61.40;;;;;;4494632;31;20121;-68
2022/06/27 06:22:55;;;;;;;0.88;0.50;;;23.30;61.30;;;;;;4494266;31;20621;-68
2022/06/27 06:25:21;;;;;;;1.05;0.80;;;23.30;61.30;;;;;;4494777;31;20383;-68
2022/06/27 06:27:46;;;;;;;1.20;0.73;;;23.30;61.30;;;;;;4494316;31;20596;-71
2022/06/27 06:30:13;;;;;;;4.55;0.65;;;23.40;61.40;;;;;;4494356;31;20073;-70
2022/06/27 06:32:39;;;;;;;1.42;0.80;;;23.40;61.40;;;;;;4494392;31;20092;-70
2022/06/27 06:35:05;;;;;;;0.68;0.55;;;23.30;61.60;;;;;;4494081;31;20111;-70
2022/06/27 06:37:32;;;;;;;7.68;1.35;;;23.30;61.60;;;;;;4494539;31;20395;-70
2022/06/27 06:39:58;;;;;;;2.33;0.80;;;23.30;61.70;;;;;;4494237;31;20128;-69
2022/06/27 06:42:25;;;;;;;0.90;0.70;;;23.30;61.80;;;;;;4494102;31;20081;-70
2022/06/27 06:44:53;;;;;;;2.20;0.70;;;23.30;61.90;;;;;;4494099;31;20227;-70
2022/06/27 06:47:19;;;;;;;1.92;0.90;;;23.40;62.00;;;;;;4492374;31;20092;-69
2022/06/27 06:49:46;;;;;;;2.05;1.10;;;23.30;62.30;;;;;;4494107;31;20164;-69
2022/06/27 06:52:13;;;;;;;1.88;0.93;;;23.30;62.30;;;;;;4494057;31;20565;-70
2022/06/27 06:54:41;;;;;;;1.67;1.27;;;23.30;62.30;;;;;;4494115;31;20085;-69
2022/06/27 06:57:10;;;;;;;2.17;0.90;;;23.30;62.40;;;;;;4493920;31;20317;-70
2022/06/27 06:59:36;;;;;;;2.97;0.90;;;23.30;62.50;;;;;;4493929;31;20281;-69
2022/06/27 07:02:04;;;;;;;2.53;0.90;;;23.40;62.70;;;;;;4493930;31;20069;-70
2022/06/27 07:04:30;;;;;;;1.70;1.00;;;23.30;63.00;;;;;;4493851;31;20091;-69
2022/06/27 07:06:58;;;;;;;1.50;1.00;;;23.30;62.60;;;;;;4492479;31;20154;-69
2022/06/27 07:09:24;;;;;;;1.92;1.30;;;23.30;62.60;;;;;;4493581;31;20077;-70
2022/06/27 07:11:50;;;;;;;1.38;1.05;;;23.30;62.60;;;;;;4493758;31;20199;-69
2022/06/27 07:14:16;;;;;;;1.60;1.15;;;23.30;62.60;;;;;;4493639;31;20495;-69
2022/06/27 07:16:42;;;;;;;1.05;0.90;;;23.30;62.60;;;;;;4493717;31;20198;-70
2022/06/27 07:19:09;;;;;;;2.40;0.93;;;23.30;62.60;;;;;;4493384;31;20301;-70
2022/06/27 07:21:35;;;;;;;3.35;1.50;;;23.40;62.70;;;;;;4493322;31;20089;-69
2022/06/27 07:24:03;;;;;;;2.55;1.38;;;23.30;62.70;;;;;;4493296;31;20077;-68
2022/06/27 07:26:31;;;;;;;1.25;0.90;;;23.30;62.80;;;;;;4493496;31;20069;-69
2022/06/27 07:28:57;;;;;;;1.67;1.20;;;23.30;62.90;;;;;;4493566;31;20096;-69
2022/06/27 07:31:23;;;;;;;6.97;1.40;;;23.30;62.90;;;;;;4493483;31;20162;-69
2022/06/27 07:33:54;;;;;;;2.08;1.23;;;23.30;62.90;;;;;;4493458;31;20065;-69
2022/06/27 07:36:20;;;;;;;2.90;1.30;;;23.30;62.90;;;;;;4493310;31;20064;-69
2022/06/27 07:38:49;;;;;;;2.03;1.20;;;23.30;62.90;;;;;;4493503;31;20207;-69
2022/06/27 07:41:19;;;;;;;2.13;1.40;;;23.30;62.90;;;;;;4493356;31;20511;-69
2022/06/27 07:43:49;;;;;;;1.60;1.40;;;23.30;63.00;;;;;;4493058;31;20087;-69
2022/06/27 07:46:17;;;;;;;3.65;1.77;;;23.30;63.00;;;;;;4491898;31;20076;-69
2022/06/27 07:48:45;;;;;;;3.85;1.60;;;23.30;63.10;;;;;;4493237;31;20073;-71
2022/06/27 07:51:14;;;;;;;3.00;1.55;;;23.30;63.10;;;;;;4493066;31;20072;-69
2022/06/27 07:53:41;;;;;;;2.20;1.50;;;23.30;63.20;;;;;;4493087;31;20073;-70
2022/06/27 07:56:07;;;;;;;2.92;1.55;;;23.30;63.30;;;;;;4491809;31;20081;-70
2022/06/27 07:58:35;;;;;;;4.65;1.67;;;23.30;63.50;;;;;;4491251;31;20131;-70
2022/06/27 08:01:14;;;;;;;5.97;1.83;;;23.30;63.50;;;;;;4492955;31;20167;-69
2022/06/27 08:03:48;;;;;;;2.55;1.85;;;23.30;63.50;;;;;;4493083;31;20095;-69
2022/06/27 08:06:22;;;;;;;2.67;1.88;;;23.30;63.50;;;;;;4492912;31;20085;-69
2022/06/27 08:09:00;;;;;;;3.42;1.80;;;23.30;63.60;;;;;;4492735;31;20168;-69
2022/06/27 08:11:29;;;;;;;1.92;1.80;;;23.30;63.70;;;;;;4493240;31;20170;-69
2022/06/27 08:13:57;;;;;;;2.72;1.77;;;23.30;63.60;;;;;;4491637;31;20438;-71
2022/06/27 08:16:24;;;;;;;4.45;2.28;;;23.30;63.70;;;;;;4492628;31;20077;-69
2022/06/27 08:18:51;;;;;;;4.20;2.00;;;23.30;63.60;;;;;;4492720;31;20088;-70
2022/06/27 08:21:21;;;;;;;3.25;1.70;;;23.30;63.70;;;;;;4492461;31;20077;-69
2022/06/27 08:23:49;;;;;;;3.65;1.90;;;23.30;63.70;;;;;;4493223;31;20124;-69
2022/06/27 08:26:16;;;;;;;2.13;1.92;;;23.30;63.70;;;;;;4492608;31;20069;-70
2022/06/27 08:28:44;;;;;;;4.00;2.00;;;23.30;63.70;;;;;;4492534;31;20076;-70
2022/06/27 08:31:12;;;;;;;1.95;1.80;;;23.30;63.70;;;;;;4492723;31;20073;-70
2022/06/27 08:33:45;;;;;;;3.15;1.90;;;23.30;63.90;;;;;;4492285;31;20266;-71
2022/06/27 08:36:14;;;;;;;2.35;2.05;;;23.30;63.90;;;;;;4493176;31;20119;-70
2022/06/27 08:38:48;;;;;;;4.03;2.05;;;23.30;63.80;;;;;;4492173;31;20088;-70
2022/06/27 08:41:15;;;;;;;4.03;1.95;;;23.30;63.70;;;;;;4492765;31;20077;-70
2022/06/27 08:43:41;;;;;;;2.20;2.00;;;23.30;63.60;;;;;;4491173;31;20421;-70
2022/06/27 08:46:09;;;;;;;3.10;2.08;;;23.30;63.60;;;;;;4491948;31;20095;-69
2022/06/27 08:48:37;;;;;;;3.90;2.17;;;23.30;63.60;;;;;;4492405;31;20092;-69
2022/06/27 08:51:05;;;;;;;2.20;1.90;;;23.30;63.60;;;;;;4492315;31;20391;-69
2022/06/27 08:53:33;;;;;;;2.85;1.85;;;23.30;63.60;;;;;;4492288;31;20093;-69
2022/06/27 08:56:01;;;;;;;1.80;1.65;;;23.30;63.50;;;;;;4492267;31;20101;-69
2022/06/27 08:58:28;;;;;;;1.92;1.83;;;23.30;63.50;;;;;;4492283;31;20080;-70
2022/06/27 09:00:55;;;;;;;2.72;1.80;;;23.30;63.60;;;;;;4492157;31;20077;-70
2022/06/27 09:03:22;;;;;;;2.28;1.67;;;23.30;63.60;;;;;;4492187;31;20418;-70
2022/06/27 09:05:59;;;;;;;2.00;1.88;;;23.30;63.60;;;;;;4491802;31;20647;-71
2022/06/27 09:08:27;;;;;;;2.00;1.80;;;23.30;63.50;;;;;;4492056;31;20616;-71
2022/06/27 09:10:54;;;;;;;2.97;1.90;;;23.30;63.50;;;;;;4491848;31;20289;-70
2022/06/27 09:13:20;;;;;;;2.53;1.58;;;23.30;63.60;;;;;;4491824;31;20091;-70
2022/06/27 09:16:00;;;;;;;2.70;1.90;;;23.30;63.60;;;;;;4491634;31;20211;-70
2022/06/27 09:18:31;;;;;;;2.28;1.67;;;23.30;63.60;;;;;;4491952;31;20099;-70
2022/06/27 09:20:59;;;;;;;2.05;1.95;;;23.30;63.70;;;;;;4491936;31;20502;-72
2022/06/27 09:23:41;;;;;;;1.83;1.58;;;23.30;64.60;;;;;;4492262;31;20095;-70
2022/06/27 09:26:21;;;;;;;2.25;1.80;;;23.30;63.80;;;;;;4491961;31;20112;-73
2022/06/27 09:28:53;;;;;;;2.22;2.00;;;23.30;63.70;;;;;;4491016;31;20410;-70
2022/06/27 09:31:28;;;;;;;4.55;2.33;;;23.30;63.80;;;;;;4492016;31;20077;-70
2022/06/27 09:34:23;;;;;;;3.33;1.73;;;23.30;63.70;;;;;;4492107;31;20117;-70
2022/06/27 09:36:58;;;;;;;1.80;1.60;;;23.30;63.80;;;;;;4492052;32;20138;-70
2022/06/27 09:39:39;;;;;;;3.75;1.90;;;23.30;63.80;;;;;;4492051;32;20376;-70
2022/06/27 09:42:08;;;;;;;4.80;1.85;;;23.30;63.70;;;;;;4490782;32;20077;-70
2022/06/27 09:44:40;;;;;;;3.38;1.75;;;23.30;64.70;;;;;;4491404;32;20182;-71
2022/06/27 09:47:20;;;;;;;1.70;1.60;;;23.30;63.90;;;;;;4492158;31;20227;-70
2022/06/27 09:49:50;;;;;;;2.13;1.45;;;23.40;63.90;;;;;;4491953;31;20068;-70
2022/06/27 09:52:21;;;;;;;2.67;1.70;;;23.30;63.90;;;;;;4491480;32;20088;-70
2022/06/27 09:54:49;;;;;;;2.30;1.63;;;23.40;64.00;;;;;;4491845;32;20410;-70
2022/06/27 09:57:17;;;;;;;1.67;1.50;;;23.30;63.90;;;;;;4491723;32;20065;-71
2022/06/27 09:59:45;;;;;;;3.95;1.92;;;23.30;64.00;;;;;;4491685;32;20137;-70
2022/06/27 10:02:16;;;;;;;2.22;1.80;;;23.30;64.00;;;;;;4491400;32;20510;-71
2022/06/27 10:04:43;;;;;;;2.08;1.40;;;23.30;64.00;;;;;;4491779;32;20080;-71
2022/06/27 10:07:12;;;;;;;1.92;1.70;;;23.30;64.00;;;;;;4491418;32;20128;-70
2022/06/27 10:09:40;;;;;;;2.53;1.63;;;23.30;64.10;;;;;;4490708;32;20115;-70
2022/06/27 10:12:24;;;;;;;3.53;1.45;;;23.30;64.10;;;;;;4477721;32;20461;-70
2022/06/27 10:15:21;;;;;;;2.55;1.50;;;23.30;64.10;;;;;;4491624;31;20079;-68
2022/06/27 10:17:51;;;;;;;2.17;1.70;;;23.30;64.00;;;;;;4482183;31;20097;-69
2022/06/27 10:20:32;;;;;;;2.03;1.35;;;23.30;64.10;;;;;;4491611;32;20132;-70
2022/06/27 10:23:03;;;;;;;2.22;1.60;;;23.30;64.10;;;;;;4494273;31;20105;-69
2022/06/27 10:25:29;;;;;;;1.70;1.60;;;23.30;64.10;;;;;;4494569;31;20073;-70
2022/06/27 10:28:14;;;;;;;1.55;1.45;;;23.30;64.10;;;;;;4494493;31;20158;-70
2022/06/27 10:30:49;;;;;;;;;;;23.30;64.10;;;;;;4495302;31;20095;-70
2022/06/27 10:33:28;;;;;;;4.82;1.60;;;23.30;64.00;;;;;;4493208;31;19973;-70
2022/06/27 10:35:54;;;;;;;1.92;1.50;;;23.30;64.20;;;;;;4494335;31;20069;-70
2022/06/27 10:38:32;;;;;;;2.60;1.98;;;23.30;64.20;;;;;;4494110;31;20085;-70
2022/06/27 10:41:06;;;;;;;2.47;1.70;;;23.30;64.20;;;;;;4494365;31;20109;-71
2022/06/27 10:43:53;;;;;;;3.88;1.50;;;23.30;64.10;;;;;;4494107;31;20095;-69
2022/06/27 10:46:18;;;;;;;2.47;1.50;;;23.30;64.10;;;;;;4492910;31;20124;-70
2022/06/27 10:48:52;;;;;;;2.05;1.30;;;23.30;64.10;;;;;;4493962;31;20065;-70
2022/06/27 10:51:18;;;;;;;2.00;1.50;;;23.30;64.10;;;;;;4493945;31;20505;-70
2022/06/27 10:53:48;;;;;;;2.42;1.70;;;23.30;64.10;;;;;;4494299;31;20104;-70
2022/06/27 10:56:26;;;;;;;2.28;1.55;;;23.30;64.10;;;;;;4493803;31;20076;-71
2022/06/27 10:58:52;;;;;;;2.50;1.40;;;23.30;64.00;;;;;;4494103;31;20550;-70
2022/06/27 11:01:18;;;;;;;2.80;1.75;;;23.30;64.10;;;;;;4494041;31;20132;-70
2022/06/27 11:03:46;;;;;;;3.50;1.67;;;23.30;64.10;;;;;;4493896;31;20073;-70
2022/06/27 11:06:15;;;;;;;3.47;1.70;;;23.30;64.10;;;;;;4494095;31;20069;-70
2022/06/27 11:08:43;;;;;;;3.38;1.60;;;23.30;64.00;;;;;;4493832;31;20096;-70
2022/06/27 11:11:19;;;;;;;2.30;1.60;;;23.30;64.00;;;;;;4493795;31;20490;-70
2022/06/27 11:13:54;;;;;;;1.92;1.52;;;23.30;64.00;;;;;;4493870;31;20521;-71
2022/06/27 11:16:31;;;;;;;2.35;1.55;;;23.30;64.00;;;;;;4493465;31;20096;-70
2022/06/27 11:19:00;;;;;;;2.47;1.85;;;23.30;63.90;;;;;;4493771;31;20073;-70
2022/06/27 11:21:36;;;;;;;1.95;1.80;;;23.30;63.90;;;;;;4493657;31;20112;-70
2022/06/27 11:24:09;;;;;;;1.60;1.50;;;23.30;63.90;;;;;;4493871;31;20494;-70
2022/06/27 11:26:48;;;;;;;3.25;1.70;;;23.30;63.90;;;;;;4493642;31;20065;-70
2022/06/27 11:32:11;;;;;;;3.97;1.77;;;23.40;63.90;;;;;;4493915;31;20224;-70
2022/06/27 11:34:40;;;;;;;2.10;1.50;;;23.40;63.90;;;;;;4491642;31;20084;-70
2022/06/27 11:37:11;;;;;;;2.63;1.70;;;23.40;63.80;;;;;;4493222;31;20142;-70
2022/06/27 11:39:37;;;;;;;2.20;1.70;;;23.40;63.80;;;;;;4493426;31;20081;-70
2022/06/27 11:42:09;;;;;;;2.10;1.90;;;23.40;63.80;;;;;;4493271;31;20096;-70
2022/06/27 11:44:37;;;;;;;2.47;2.03;;;23.40;64.60;;;;;;4493398;31;20097;-70
2022/06/27 11:47:07;;;;;;;1.95;1.75;;;23.40;63.70;;;;;;4492992;31;20078;-70
2022/06/27 11:49:36;;;;;;;2.28;1.80;;;23.40;63.70;;;;;;4493039;31;20091;-71
2022/06/27 11:52:12;;;;;;;1.98;1.77;;;23.40;63.60;;;;;;4493402;31;20181;-68
2022/06/27 11:54:48;;;;;;;1.98;1.83;;;23.40;63.50;;;;;;4493452;31;20136;-70
2022/06/27 11:57:31;;;;;;;2.20;2.00;;;23.40;63.50;;;;;;4493501;31;20103;-70
2022/06/27 11:59:57;;;;;;;2.00;1.80;;;23.40;63.40;;;;;;4493258;31;20204;-70
2022/06/27 12:02:27;;;;;;;2.35;1.83;;;23.40;63.40;;;;;;4492856;31;20199;-70
2022/06/27 12:05:13;;;;;;;2.78;1.88;;;23.40;63.40;;;;;;4493128;31;20076;-69
2022/06/27 12:07:58;;;;;;;3.20;1.52;;;23.40;63.30;;;;;;4493393;31;20120;-70
2022/06/27 12:13:36;;;;;;;2.08;1.58;;;23.40;63.30;;;;;;4493355;31;20088;-69
2022/06/27 12:16:03;;;;;;;2.55;1.80;;;23.40;63.60;;;;;;4493013;31;20081;-69
2022/06/27 12:18:41;;;;;;;2.22;1.73;;;23.40;63.60;;;;;;4492875;31;20079;-68
2022/06/27 12:21:08;;;;;;;2.33;1.50;;;23.40;63.50;;;;;;4492966;31;20083;-69
2022/06/27 12:23:35;;;;;;;1.95;1.67;;;23.40;63.70;;;;;;4492917;31;20242;-69
2022/06/27 12:26:02;;;;;;;2.20;1.83;;;23.40;63.70;;;;;;4492800;31;20510;-70
2022/06/27 12:28:28;;;;;;;3.20;2.05;;;23.40;63.80;;;;;;4492476;31;20124;-70
2022/06/27 12:30:54;;;;;;;3.92;1.50;;;23.40;63.90;;;;;;4492577;31;20076;-70
2022/06/27 12:33:20;;;;;;;3.60;2.10;;;23.40;64.00;;;;;;4492641;31;20418;-69
2022/06/27 12:35:46;;;;;;;2.78;2.03;;;23.40;63.90;;;;;;4492339;31;20498;-70
2022/06/27 12:38:12;;;;;;;4.28;2.08;;;23.40;63.90;;;;;;4492559;31;20170;-72
2022/06/27 12:40:38;;;;;;;4.65;2.15;;;23.40;63.90;;;;;;4492811;31;20065;-69
2022/06/27 12:43:05;;;;;;;5.38;2.30;;;23.40;64.00;;;;;;4492126;31;20062;-70
2022/06/27 12:45:33;;;;;;;5.93;2.00;;;23.40;64.00;;;;;;4492075;31;20093;-70
2022/06/27 12:47:59;;;;;;;5.45;1.77;;;23.40;64.00;;;;;;4492449;31;20109;-69
2022/06/27 12:50:25;;;;;;;2.95;2.03;;;23.40;64.00;;;;;;4492488;31;20166;-70
2022/06/27 12:52:51;;;;;;;4.20;1.75;;;23.40;64.00;;;;;;4492335;31;20080;-71
2022/06/27 12:55:17;;;;;;;4.40;2.00;;;23.40;64.00;;;;;;4492303;31;20088;-70
2022/06/27 12:57:43;;;;;;;4.35;1.85;;;23.40;64.00;;;;;;4492426;31;20219;-70
2022/06/27 13:00:09;;;;;;;2.80;1.65;;;23.40;64.00;;;;;;4492487;31;20119;-70
2022/06/27 13:02:35;;;;;;;3.13;1.88;;;23.40;64.10;;;;;;4492279;31;20166;-70
2022/06/27 13:05:01;;;;;;;4.20;1.80;;;23.40;64.20;;;;;;4492300;31;20085;-70